Time;durP1;ratioP1;P1;durP2;ratioP2;P2;SDS_P1;SDS_P2;PMS_P1;PMS_P2;Temp;Humidity;BMP_temperature;BMP_pressure;BME280_temperature;BME280_humidity;BME280_pressure;Samples;Min_cycle;Max_cycle;Signal;HPM_P1;HPM_P2
2022/09/19 00:00:14;;;;;;;1.55;1.30;;;9.50;99.90;;;;;;2114902;28;20108;-74
2022/09/19 00:01:17;;;;;;;2.40;1.20;;;9.40;99.90;;;;;;2114766;27;20466;-74
2022/09/19 00:02:18;;;;;;;2.53;1.30;;;9.50;99.90;;;;;;2114864;28;20027;-74
2022/09/19 00:03:18;;;;;;;2.38;1.42;;;9.50;99.90;;;;;;2114739;28;20642;-74
2022/09/19 00:04:25;;;;;;;2.03;1.30;;;9.50;99.90;;;;;;2114806;28;20039;-74
2022/09/19 00:05:26;;;;;;;2.58;1.50;;;9.40;99.90;;;;;;2114539;28;20032;-74
2022/09/19 00:06:28;;;;;;;2.38;1.50;;;9.40;99.90;;;;;;2105668;28;20059;-74
2022/09/19 00:07:28;;;;;;;2.40;1.70;;;9.40;99.90;;;;;;2104385;28;20526;-75
2022/09/19 00:08:29;;;;;;;2.47;1.30;;;9.40;99.90;;;;;;2106103;28;20062;-74
2022/09/19 00:09:32;;;;;;;2.08;1.40;;;9.40;99.90;;;;;;2106157;28;20031;-75
2022/09/19 00:10:41;;;;;;;2.65;1.30;;;9.40;99.90;;;;;;2106702;28;20479;-75
2022/09/19 00:11:44;;;;;;;3.03;1.45;;;9.40;99.90;;;;;;2105846;28;20087;-75
2022/09/19 00:12:45;;;;;;;2.03;1.50;;;9.40;99.90;;;;;;2106061;28;20027;-76
2022/09/19 00:13:48;;;;;;;2.20;1.50;;;9.50;99.90;;;;;;2106226;28;20027;-75
2022/09/19 00:14:48;;;;;;;2.47;1.52;;;9.50;99.90;;;;;;2106294;28;20023;-75
2022/09/19 00:15:49;;;;;;;2.20;1.50;;;9.50;99.90;;;;;;2105878;28;20035;-75
2022/09/19 00:16:56;;;;;;;1.55;1.40;;;9.50;99.90;;;;;;2106462;28;20024;-74
2022/09/19 00:17:57;;;;;;;1.70;1.48;;;9.50;99.90;;;;;;2106169;28;20020;-75
2022/09/19 00:19:00;;;;;;;1.95;1.48;;;9.50;99.90;;;;;;2105924;28;20032;-75
2022/09/19 00:20:01;;;;;;;1.75;1.30;;;9.50;99.90;;;;;;2105580;28;20012;-75
2022/09/19 00:21:01;;;;;;;2.70;1.50;;;9.50;99.90;;;;;;2097141;28;20044;-74
2022/09/19 00:22:03;;;;;;;1.30;1.20;;;9.50;99.90;;;;;;2097124;28;20031;-74
2022/09/19 00:25:42;;;;;;;1.58;1.23;;;9.50;99.90;;;;;;2106182;28;20024;-74
2022/09/19 00:26:46;;;;;;;1.38;1.20;;;9.50;99.90;;;;;;2106226;28;20428;-75
2022/09/19 00:27:47;;;;;;;1.40;1.30;;;9.50;99.90;;;;;;2105672;28;20035;-74
2022/09/19 00:28:48;;;;;;;1.83;1.30;;;9.50;99.90;;;;;;2097545;28;20024;-75
2022/09/19 00:29:49;;;;;;;1.83;1.40;;;9.50;99.90;;;;;;2097945;28;20036;-74
2022/09/19 00:30:49;;;;;;;2.60;1.40;;;9.50;99.90;;;;;;2105914;28;20028;-74
2022/09/19 00:31:51;;;;;;;2.45;1.27;;;9.50;99.90;;;;;;2106198;28;20028;-73
2022/09/19 00:32:53;;;;;;;1.92;1.42;;;9.50;99.90;;;;;;2105844;28;20059;-72
2022/09/19 00:33:55;;;;;;;2.58;1.40;;;9.50;99.90;;;;;;2105119;28;20028;-72
2022/09/19 00:34:56;;;;;;;2.25;1.25;;;9.50;99.90;;;;;;2096765;28;20062;-73
2022/09/19 00:35:58;;;;;;;1.48;1.38;;;9.50;99.90;;;;;;2096495;28;20145;-72
2022/09/19 00:36:59;;;;;;;2.35;1.33;;;9.50;99.90;;;;;;2088364;28;20025;-71
2022/09/19 00:38:00;;;;;;;1.40;1.30;;;9.50;99.90;;;;;;2096171;28;20067;-72
2022/09/19 00:39:00;;;;;;;1.45;1.30;;;9.50;99.90;;;;;;2103917;28;20398;-72
2022/09/19 00:40:01;;;;;;;1.55;1.40;;;9.40;99.90;;;;;;2096820;28;20021;-73
2022/09/19 00:41:02;;;;;;;2.10;1.27;;;9.40;99.90;;;;;;2104643;28;20521;-73
2022/09/19 00:42:03;;;;;;;2.08;1.30;;;9.40;99.90;;;;;;2096248;28;20036;-71
2022/09/19 00:43:05;;;;;;;1.30;1.20;;;9.40;99.90;;;;;;2096359;28;20839;-72
2022/09/19 00:44:26;;;;;;;1.30;1.20;;;9.40;99.90;;;;;;2104958;28;20020;-73
2022/09/19 00:45:27;;;;;;;1.40;1.30;;;9.40;99.90;;;;;;2097087;28;20032;-72
2022/09/19 00:46:31;;;;;;;1.60;1.40;;;9.40;99.90;;;;;;2105397;28;20031;-73
2022/09/19 00:47:41;;;;;;;1.48;1.27;;;9.40;99.90;;;;;;2105836;28;20043;-72
2022/09/19 00:48:45;;;;;;;1.55;1.30;;;9.40;99.90;;;;;;2110467;28;20035;-72
2022/09/19 00:49:48;;;;;;;1.50;1.20;;;9.40;99.90;;;;;;2108750;28;20035;-72
2022/09/19 00:50:53;;;;;;;2.03;1.30;;;9.40;99.90;;;;;;2113240;28;20023;-73
2022/09/19 00:52:00;;;;;;;1.70;1.10;;;9.40;99.90;;;;;;2113123;28;20115;-72
2022/09/19 00:53:04;;;;;;;4.05;1.17;;;9.40;99.90;;;;;;2113102;28;20051;-73
2022/09/19 00:54:12;;;;;;;1.70;1.38;;;9.40;99.90;;;;;;2113238;28;20457;-72
2022/09/19 00:55:13;;;;;;;3.47;1.38;;;9.40;99.90;;;;;;2113128;28;20038;-72
2022/09/19 00:56:18;;;;;;;1.38;1.20;;;9.40;99.90;;;;;;2104961;28;20031;-73
2022/09/19 00:57:18;;;;;;;1.63;1.40;;;9.40;99.90;;;;;;2104765;28;20036;-73
2022/09/19 00:58:30;;;;;;;1.45;1.30;;;9.40;99.90;;;;;;2104558;28;20094;-72
2022/09/19 00:59:35;;;;;;;1.40;1.30;;;9.40;99.90;;;;;;2106393;28;20031;-72
2022/09/19 01:00:36;;;;;;;1.65;1.33;;;9.40;99.90;;;;;;2113356;28;20386;-72
2022/09/19 01:01:38;;;;;;;1.63;1.25;;;9.40;99.90;;;;;;2113659;28;20052;-74
2022/09/19 01:02:41;;;;;;;1.35;1.20;;;9.40;99.90;;;;;;2104984;28;20049;-74
2022/09/19 01:03:45;;;;;;;1.40;1.30;;;9.50;99.90;;;;;;2094556;28;20032;-73
2022/09/19 01:04:47;;;;;;;1.55;1.20;;;9.50;99.90;;;;;;2096201;28;20020;-73
2022/09/19 01:05:56;;;;;;;1.40;1.30;;;9.50;99.90;;;;;;2099699;28;20019;-73
2022/09/19 01:07:07;;;;;;;1.48;1.38;;;9.40;99.90;;;;;;2104703;28;20555;-74
2022/09/19 01:08:15;;;;;;;;;;;9.50;99.90;;;;;;2105566;28;20035;-73
2022/09/19 01:09:30;;;;;;;2.00;1.20;;;9.40;99.90;;;;;;2104541;28;19950;-73
2022/09/19 01:10:54;;;;;;;1.92;1.40;;;9.40;99.90;;;;;;2104884;28;20079;-74
2022/09/19 01:12:26;;;;;;;2.42;1.30;;;9.40;99.90;;;;;;2104282;28;20059;-73
2022/09/19 01:13:52;;;;;;;1.50;1.40;;;9.40;99.90;;;;;;2100565;28;20024;-74
2022/09/19 01:15:32;;;;;;;2.00;1.40;;;9.40;99.90;;;;;;2104718;28;20034;-74
2022/09/19 01:16:41;;;;;;;2.25;1.45;;;9.40;99.90;;;;;;2103855;28;20059;-73
2022/09/19 01:17:46;;;;;;;2.53;1.42;;;9.40;99.90;;;;;;2104053;28;20048;-74
2022/09/19 01:19:09;;;;;;;2.78;1.70;;;9.40;99.90;;;;;;2096506;28;20104;-73
2022/09/19 01:20:19;;;;;;;2.42;1.60;;;9.30;99.90;;;;;;2087847;28;20434;-74
2022/09/19 01:21:38;;;;;;;2.40;1.52;;;9.30;99.90;;;;;;2089871;28;20050;-73
2022/09/19 01:22:55;;;;;;;2.28;1.40;;;9.30;99.90;;;;;;2090138;28;20569;-73
2022/09/19 01:24:20;;;;;;;3.63;1.50;;;9.30;99.90;;;;;;2092060;28;20025;-73
2022/09/19 01:25:31;;;;;;;2.58;1.73;;;9.20;99.90;;;;;;2099029;28;20035;-72
2022/09/19 01:27:09;;;;;;;2.75;1.60;;;9.30;99.90;;;;;;2097323;28;20016;-73
2022/09/19 01:28:32;;;;;;;3.35;1.70;;;9.20;99.90;;;;;;2104750;28;20058;-72
2022/09/19 01:29:38;;;;;;;1.75;1.65;;;9.20;99.90;;;;;;2104439;28;20090;-72
2022/09/19 01:31:16;;;;;;;3.05;1.65;;;9.20;99.90;;;;;;2097077;28;20578;-71
2022/09/19 01:32:18;;;;;;;1.75;1.60;;;9.30;99.90;;;;;;2104607;28;20019;-72
2022/09/19 01:33:20;;;;;;;2.00;1.80;;;9.20;99.90;;;;;;2104640;28;20476;-72
2022/09/19 01:34:51;;;;;;;2.72;1.85;;;9.20;99.90;;;;;;2096659;28;20052;-72
2022/09/19 01:35:54;;;;;;;1.70;1.60;;;9.20;99.90;;;;;;2099597;28;20032;-72
2022/09/19 01:37:28;;;;;;;2.90;2.00;;;9.30;99.90;;;;;;2096310;28;20071;-72
2022/09/19 01:38:38;;;;;;;2.38;1.75;;;9.30;99.90;;;;;;2100578;28;20472;-73
2022/09/19 01:39:46;;;;;;;1.98;1.80;;;9.30;99.90;;;;;;2097662;28;20419;-73
2022/09/19 01:40:47;;;;;;;1.70;1.60;;;9.30;99.90;;;;;;2105006;28;20032;-72
2022/09/19 01:41:53;;;;;;;1.90;1.80;;;9.30;99.90;;;;;;2105121;28;20051;-73
2022/09/19 01:42:56;;;;;;;3.40;1.90;;;9.30;99.90;;;;;;2104660;28;20024;-72
2022/09/19 01:44:05;;;;;;;2.45;1.83;;;9.30;99.90;;;;;;2093546;28;20093;-73
2022/09/19 01:45:10;;;;;;;3.20;1.80;;;9.30;99.90;;;;;;2098704;28;20044;-73
2022/09/19 01:46:36;;;;;;;2.88;1.80;;;9.30;99.90;;;;;;2105250;28;20016;-72
2022/09/19 01:47:52;;;;;;;2.47;1.85;;;9.30;99.90;;;;;;2088768;28;20495;-73
2022/09/19 01:49:17;;;;;;;2.10;1.90;;;9.20;99.90;;;;;;2084567;28;20539;-74
2022/09/19 01:50:23;;;;;;;1.95;1.75;;;9.20;99.90;;;;;;2091594;28;20427;-74
2022/09/19 01:51:31;;;;;;;2.67;1.90;;;9.20;99.90;;;;;;2096639;28;20025;-73
2022/09/19 01:52:51;;;;;;;2.50;1.90;;;9.20;99.90;;;;;;2096657;28;20025;-75
2022/09/19 01:54:21;;;;;;;2.50;2.00;;;9.30;99.90;;;;;;2091986;28;20390;-74
2022/09/19 01:55:46;;;;;;;1.80;1.70;;;9.20;99.90;;;;;;2096910;28;20597;-74
2022/09/19 01:57:19;;;;;;;3.33;2.15;;;9.30;99.90;;;;;;2096698;28;20028;-74
2022/09/19 01:58:48;;;;;;;2.35;2.15;;;9.30;99.90;;;;;;2096597;28;20714;-74
2022/09/19 02:00:01;;;;;;;2.50;2.28;;;9.30;99.90;;;;;;2083532;28;20033;-73
2022/09/19 02:01:16;;;;;;;3.83;2.20;;;9.20;99.90;;;;;;2102924;28;20139;-74
2022/09/19 02:02:34;;;;;;;3.65;2.53;;;9.20;99.90;;;;;;2096757;28;20595;-73
2022/09/19 02:03:48;;;;;;;3.22;2.63;;;9.20;99.90;;;;;;2085254;28;20025;-73
2022/09/19 02:05:03;;;;;;;3.72;2.90;;;9.20;99.90;;;;;;2090229;28;20017;-73
2022/09/19 02:06:14;;;;;;;5.60;3.10;;;9.20;99.90;;;;;;2090242;28;20483;-74
2022/09/19 02:07:27;;;;;;;6.35;3.40;;;9.20;99.90;;;;;;2089803;28;20052;-74
2022/09/19 02:08:37;;;;;;;4.10;3.08;;;9.20;99.90;;;;;;2090302;28;20068;-73
2022/09/19 02:09:52;;;;;;;4.43;3.40;;;9.20;99.90;;;;;;2089707;28;20029;-74
2022/09/19 02:11:09;;;;;;;5.60;3.63;;;9.20;99.90;;;;;;2090722;28;20044;-73
2022/09/19 02:12:15;;;;;;;5.07;3.80;;;9.20;99.90;;;;;;2090368;28;20032;-73
2022/09/19 02:13:17;;;;;;;4.38;3.90;;;9.20;99.90;;;;;;2088575;28;20032;-74
2022/09/19 02:14:26;;;;;;;4.95;4.05;;;9.20;99.90;;;;;;2080793;28;20018;-74
2022/09/19 02:15:34;;;;;;;4.50;3.97;;;9.20;99.90;;;;;;2083203;28;20040;-74
2022/09/19 02:16:47;;;;;;;5.25;4.20;;;9.20;99.90;;;;;;2096735;28;20027;-74
2022/09/19 02:18:06;;;;;;;5.20;4.38;;;9.20;99.90;;;;;;2097117;28;20494;-74
2022/09/19 02:19:23;;;;;;;4.57;4.10;;;9.20;99.90;;;;;;2097072;28;20032;-74
2022/09/19 02:20:29;;;;;;;5.22;4.43;;;9.20;99.90;;;;;;2096487;28;20085;-73
2022/09/19 02:21:38;;;;;;;5.75;4.25;;;9.20;99.90;;;;;;2097069;28;20032;-74
2022/09/19 02:22:45;;;;;;;5.57;4.32;;;9.20;99.90;;;;;;2104976;28;20027;-73
2022/09/19 02:23:50;;;;;;;4.85;4.35;;;9.20;99.90;;;;;;2089290;28;20044;-73
2022/09/19 02:24:58;;;;;;;6.82;4.68;;;9.20;99.90;;;;;;2089303;28;20124;-74
2022/09/19 02:26:03;;;;;;;5.38;4.43;;;9.20;99.90;;;;;;2097422;28;20465;-73
2022/09/19 02:27:15;;;;;;;6.35;5.10;;;9.20;99.90;;;;;;2096908;28;20032;-74
2022/09/19 02:28:22;;;;;;;5.82;4.68;;;9.20;99.90;;;;;;2097790;28;20081;-73
2022/09/19 02:29:30;;;;;;;8.25;5.53;;;9.20;99.90;;;;;;2097207;28;20040;-73
2022/09/19 02:30:32;;;;;;;7.90;5.75;;;9.20;99.90;;;;;;2097284;28;20789;-73
2022/09/19 02:31:34;;;;;;;8.73;5.78;;;9.20;99.90;;;;;;2096465;28;20037;-74
2022/09/19 02:32:46;;;;;;;6.82;5.75;;;9.20;99.90;;;;;;2088242;28;20028;-73
2022/09/19 02:33:48;;;;;;;9.63;6.38;;;9.20;99.90;;;;;;2090085;28;20028;-73
2022/09/19 02:34:55;;;;;;;8.60;6.20;;;9.20;99.90;;;;;;2088940;28;20043;-73
2022/09/19 02:36:20;;;;;;;8.35;6.40;;;9.20;99.90;;;;;;2096585;28;20017;-73
2022/09/19 02:37:55;;;;;;;8.32;6.22;;;9.20;99.90;;;;;;2099484;28;20039;-73
2022/09/19 02:39:00;;;;;;;9.55;6.18;;;9.20;99.90;;;;;;2092563;28;20563;-73
2022/09/19 02:40:28;;;;;;;8.20;6.20;;;9.20;99.90;;;;;;2112643;28;20023;-73
2022/09/19 02:41:37;;;;;;;8.95;6.40;;;9.20;99.90;;;;;;2091561;28;20035;-74
2022/09/19 02:42:44;;;;;;;8.13;6.32;;;9.20;99.90;;;;;;2096082;28;20031;-74
2022/09/19 02:43:55;;;;;;;7.93;5.90;;;9.20;99.90;;;;;;2096484;28;20677;-74
2022/09/19 02:45:11;;;;;;;10.32;5.90;;;9.20;99.90;;;;;;2100525;28;20084;-73
2022/09/19 02:46:30;;;;;;;8.82;6.13;;;9.20;99.90;;;;;;2112378;28;20032;-73
2022/09/19 02:47:45;;;;;;;6.15;5.40;;;9.20;99.90;;;;;;2098003;28;20044;-72
2022/09/19 02:48:55;;;;;;;8.25;5.95;;;9.20;99.90;;;;;;2099252;28;20025;-74
2022/09/19 02:50:12;;;;;;;8.55;6.00;;;9.20;99.90;;;;;;2105910;28;20340;-73
2022/09/19 02:51:20;;;;;;;8.75;5.90;;;9.20;99.90;;;;;;2106651;28;20032;-73
2022/09/19 02:52:28;;;;;;;8.20;5.95;;;9.20;99.90;;;;;;2105733;28;20054;-73
2022/09/19 02:53:51;;;;;;;6.18;5.10;;;9.20;99.90;;;;;;2106989;28;20606;-74
2022/09/19 02:55:17;;;;;;;7.45;5.20;;;9.20;99.90;;;;;;2105140;28;20020;-74
2022/09/19 02:56:26;;;;;;;9.60;5.78;;;9.20;99.90;;;;;;2097696;28;20075;-74
2022/09/19 02:57:29;;;;;;;7.78;5.25;;;9.20;99.90;;;;;;2089182;28;20032;-73
2022/09/19 02:58:48;;;;;;;7.15;5.30;;;9.20;99.90;;;;;;2081344;28;20033;-75
2022/09/19 02:59:52;;;;;;;7.40;5.30;;;9.20;99.90;;;;;;2090313;28;20094;-75
2022/09/19 03:00:59;;;;;;;6.88;5.10;;;9.20;99.90;;;;;;2088835;28;20025;-74
2022/09/19 03:02:16;;;;;;;8.00;5.05;;;9.20;99.90;;;;;;2081297;28;20059;-75
2022/09/19 03:04:48;;;;;;;7.82;5.22;;;9.20;99.90;;;;;;2093395;28;20066;-74
2022/09/19 03:05:50;;;;;;;8.35;5.22;;;9.20;99.90;;;;;;2081749;28;20026;-74
2022/09/19 03:06:54;;;;;;;6.93;5.20;;;9.20;99.90;;;;;;2089657;28;20076;-75
2022/09/19 03:08:06;;;;;;;7.22;5.50;;;9.20;99.90;;;;;;2097728;28;20087;-74
2022/09/19 03:09:11;;;;;;;6.25;5.30;;;9.20;99.90;;;;;;2093026;28;20397;-73
2022/09/19 03:10:19;;;;;;;5.68;4.90;;;9.20;99.90;;;;;;2098324;28;20043;-72
2022/09/19 03:11:38;;;;;;;9.00;5.75;;;9.20;99.90;;;;;;2092254;28;20029;-72
2022/09/19 03:12:50;;;;;;;9.15;6.10;;;9.20;99.90;;;;;;2092911;28;20138;-72
2022/09/19 03:13:58;;;;;;;6.97;5.70;;;9.20;99.90;;;;;;2106258;28;20032;-73
2022/09/19 03:15:00;;;;;;;10.18;6.10;;;9.20;99.90;;;;;;2106383;28;20020;-73
2022/09/19 03:16:15;;;;;;;8.55;5.78;;;9.20;99.90;;;;;;2097904;28;20039;-74
2022/09/19 03:17:18;;;;;;;8.32;6.60;;;9.20;99.90;;;;;;2106213;28;20135;-74
2022/09/19 03:18:21;;;;;;;7.65;5.78;;;9.20;99.90;;;;;;2106368;28;20024;-73
2022/09/19 03:19:24;;;;;;;7.72;5.95;;;9.20;99.90;;;;;;2098054;28;20063;-73
2022/09/19 03:20:26;;;;;;;9.55;6.07;;;9.20;99.90;;;;;;2090168;28;20063;-74
2022/09/19 03:21:27;;;;;;;7.15;5.60;;;9.20;99.90;;;;;;2089854;28;20460;-73
2022/09/19 03:22:29;;;;;;;8.15;6.03;;;9.20;99.90;;;;;;2097738;28;20387;-73
2022/09/19 03:23:39;;;;;;;8.60;5.97;;;9.20;99.90;;;;;;2089699;28;20214;-74
2022/09/19 03:24:42;;;;;;;11.70;6.60;;;9.20;99.90;;;;;;2092186;28;20037;-74
2022/09/19 03:25:42;;;;;;;9.02;6.43;;;9.20;99.90;;;;;;2097628;28;20060;-74
2022/09/19 03:26:44;;;;;;;11.25;6.47;;;9.20;99.90;;;;;;2097531;28;20538;-78
2022/09/19 03:27:45;;;;;;;12.18;7.30;;;9.20;99.90;;;;;;2097749;28;20025;-74
2022/09/19 03:28:49;;;;;;;10.18;6.95;;;9.10;99.90;;;;;;2097989;28;20043;-73
2022/09/19 03:29:50;;;;;;;8.63;7.47;;;9.10;99.90;;;;;;2089569;28;20709;-73
2022/09/19 03:30:51;;;;;;;11.80;8.45;;;9.20;99.90;;;;;;2089935;28;20060;-74
2022/09/19 03:31:53;;;;;;;13.63;9.55;;;9.20;99.90;;;;;;2106222;28;20138;-73
2022/09/19 03:32:55;;;;;;;13.75;9.90;;;9.20;99.90;;;;;;2106798;28;20626;-75
2022/09/19 03:33:57;;;;;;;12.13;9.18;;;9.20;99.90;;;;;;2106904;28;20024;-73
2022/09/19 03:34:58;;;;;;;12.63;8.90;;;9.20;99.90;;;;;;2105727;28;20031;-73
2022/09/19 03:36:02;;;;;;;13.13;9.15;;;9.20;99.90;;;;;;2096852;28;20032;-74
2022/09/19 03:37:03;;;;;;;11.77;8.65;;;9.20;99.90;;;;;;2103141;28;20125;-73
2022/09/19 03:38:06;;;;;;;14.13;9.32;;;9.20;99.90;;;;;;2100024;28;20059;-74
2022/09/19 03:39:07;;;;;;;11.65;8.73;;;9.30;99.90;;;;;;2089329;28;20064;-74
2022/09/19 03:40:14;;;;;;;8.85;7.28;;;9.20;99.90;;;;;;2091353;28;20025;-73
2022/09/19 03:41:18;;;;;;;11.32;7.20;;;9.30;99.90;;;;;;2097608;28;20013;-73
2022/09/19 03:42:19;;;;;;;11.02;6.90;;;9.30;99.90;;;;;;2098153;28;20070;-73
2022/09/19 03:43:20;;;;;;;9.23;6.65;;;9.30;99.90;;;;;;2097798;28;20085;-73
2022/09/19 03:44:21;;;;;;;8.40;6.65;;;9.30;99.90;;;;;;2105956;28;20589;-74
2022/09/19 03:45:22;;;;;;;9.18;6.43;;;9.30;99.90;;;;;;2097386;28;20469;-74
2022/09/19 03:46:23;;;;;;;10.63;6.50;;;9.30;99.90;;;;;;2097524;28;20028;-73
2022/09/19 03:47:25;;;;;;;7.70;6.28;;;9.30;99.90;;;;;;2097647;28;20449;-73
2022/09/19 03:48:26;;;;;;;11.05;6.97;;;9.30;99.90;;;;;;2097501;28;20029;-73
2022/09/19 03:49:27;;;;;;;10.30;6.97;;;9.30;99.90;;;;;;2105781;28;20024;-74
2022/09/19 03:50:28;;;;;;;9.00;7.60;;;9.30;99.90;;;;;;2106108;28;20027;-73
2022/09/19 03:51:49;;;;;;;9.25;7.22;;;9.30;99.90;;;;;;2104500;28;20028;-73
2022/09/19 03:52:51;;;;;;;8.80;7.15;;;9.30;99.90;;;;;;2099654;28;20016;-71
2022/09/19 03:53:53;;;;;;;12.63;8.50;;;9.30;99.90;;;;;;2104916;28;20020;-70
2022/09/19 03:54:57;;;;;;;11.27;8.00;;;9.30;99.90;;;;;;2096962;28;20095;-71
2022/09/19 03:56:00;;;;;;;12.30;8.93;;;9.30;99.90;;;;;;2096818;28;20063;-71
2022/09/19 03:57:01;;;;;;;12.10;8.20;;;9.30;99.90;;;;;;2096689;28;20016;-70
2022/09/19 03:58:02;;;;;;;13.85;8.98;;;9.30;99.90;;;;;;2096585;28;20616;-71
2022/09/19 03:59:02;;;;;;;10.43;8.68;;;9.30;99.90;;;;;;2096358;28;20024;-71
2022/09/19 04:00:05;;;;;;;14.55;8.90;;;9.30;99.90;;;;;;2096744;28;20027;-70
2022/09/19 04:01:17;;;;;;;13.40;8.80;;;9.40;99.90;;;;;;2104935;28;20027;-71
2022/09/19 04:02:19;;;;;;;12.07;8.38;;;9.40;99.90;;;;;;2104957;28;20024;-71
2022/09/19 04:03:23;;;;;;;11.50;8.65;;;9.40;99.90;;;;;;2104742;28;20028;-70
2022/09/19 04:04:25;;;;;;;9.10;7.78;;;9.40;99.90;;;;;;2096718;28;20063;-71
2022/09/19 04:05:32;;;;;;;10.82;8.68;;;9.40;99.90;;;;;;2096518;28;20028;-71
2022/09/19 04:06:33;;;;;;;10.35;7.60;;;9.40;99.90;;;;;;2097368;28;20028;-71
2022/09/19 04:07:34;;;;;;;11.18;7.78;;;9.40;99.90;;;;;;2096663;28;20024;-71
2022/09/19 04:08:35;;;;;;;9.60;7.45;;;9.40;99.90;;;;;;2096490;28;20086;-71
2022/09/19 04:09:36;;;;;;;14.25;8.82;;;9.50;99.90;;;;;;2096655;28;20020;-71
2022/09/19 04:10:42;;;;;;;10.32;7.30;;;9.50;99.90;;;;;;2097026;28;20175;-71
2022/09/19 04:11:43;;;;;;;12.30;7.97;;;9.50;99.90;;;;;;2096547;28;20509;-70
2022/09/19 04:12:43;;;;;;;9.93;8.10;;;9.50;99.90;;;;;;2096314;28;20028;-70
2022/09/19 04:13:48;;;;;;;11.20;8.15;;;9.50;99.90;;;;;;2091507;28;20616;-70
2022/09/19 04:14:51;;;;;;;9.85;7.50;;;9.50;99.90;;;;;;2104812;28;20545;-71
2022/09/19 04:15:53;;;;;;;10.20;7.25;;;9.50;99.90;;;;;;2104824;28;20055;-70
2022/09/19 04:16:55;;;;;;;8.10;6.63;;;9.50;99.90;;;;;;2109437;28;20078;-71
2022/09/19 04:17:56;;;;;;;8.85;6.90;;;9.50;99.90;;;;;;2099736;28;20040;-71
2022/09/19 04:18:56;;;;;;;12.43;8.10;;;9.50;99.90;;;;;;2107499;28;20067;-71
2022/09/19 04:20:23;;;;;;;9.85;7.32;;;9.50;99.90;;;;;;2106027;28;20029;-70
2022/09/19 04:21:24;;;;;;;12.55;7.80;;;9.50;99.90;;;;;;2104920;28;20027;-70
2022/09/19 04:22:41;;;;;;;15.45;8.15;;;9.50;99.90;;;;;;2098663;28;20024;-70
2022/09/19 04:23:55;;;;;;;10.00;7.57;;;9.50;99.90;;;;;;2104822;28;20024;-69
2022/09/19 04:25:34;;;;;;;8.88;6.22;;;9.50;99.90;;;;;;2100839;28;20024;-69
2022/09/19 04:26:43;;;;;;;;;;;9.50;99.90;;;;;;2105378;28;20678;-69
2022/09/19 04:27:44;;;;;;;10.90;7.43;;;9.50;99.90;;;;;;2096479;28;19912;-70
2022/09/19 04:28:46;;;;;;;11.77;8.25;;;9.50;99.90;;;;;;2096107;28;20025;-71
2022/09/19 04:29:47;;;;;;;11.82;7.53;;;9.50;99.90;;;;;;2096718;28;20379;-69
2022/09/19 04:30:49;;;;;;;10.30;7.50;;;9.50;99.90;;;;;;2096681;28;20119;-69
2022/09/19 04:31:50;;;;;;;11.13;7.28;;;9.50;99.90;;;;;;2096405;28;20054;-69
2022/09/19 04:32:52;;;;;;;8.00;6.45;;;9.50;99.90;;;;;;2092553;28;20364;-68
2022/09/19 04:33:54;;;;;;;10.27;7.32;;;9.50;99.90;;;;;;2100588;28;20556;-68
2022/09/19 04:34:55;;;;;;;8.90;6.70;;;9.50;99.90;;;;;;2101379;28;20122;-68
2022/09/19 04:35:59;;;;;;;10.70;6.72;;;9.50;99.90;;;;;;2104975;28;20035;-68
2022/09/19 04:37:02;;;;;;;14.02;7.13;;;9.50;99.90;;;;;;2113356;28;20015;-69
2022/09/19 04:38:09;;;;;;;8.82;6.28;;;9.60;99.90;;;;;;2104977;28;20494;-68
2022/09/19 04:39:10;;;;;;;9.32;6.10;;;9.60;99.90;;;;;;2105608;28;20441;-69
2022/09/19 04:40:13;;;;;;;7.78;6.18;;;9.60;99.90;;;;;;2104949;28;20027;-68
2022/09/19 04:41:14;;;;;;;9.65;6.25;;;9.60;99.90;;;;;;2104773;28;20421;-68
2022/09/19 04:42:16;;;;;;;9.18;6.47;;;9.60;99.90;;;;;;2104431;28;20537;-68
2022/09/19 04:43:18;;;;;;;9.30;6.55;;;9.60;99.90;;;;;;2113360;28;20023;-69
2022/09/19 04:44:36;;;;;;;10.48;6.97;;;9.60;99.90;;;;;;2104664;28;20032;-69
2022/09/19 04:45:59;;;;;;;8.05;6.10;;;9.60;99.90;;;;;;2104458;28;20106;-69
2022/09/19 04:47:06;;;;;;;10.35;7.15;;;9.60;99.90;;;;;;2102791;28;20384;-70
2022/09/19 04:48:07;;;;;;;8.73;6.50;;;9.60;99.90;;;;;;2104705;28;20028;-69
2022/09/19 04:49:08;;;;;;;8.55;6.30;;;9.60;99.90;;;;;;2089942;28;20491;-69
2022/09/19 04:50:11;;;;;;;8.75;6.47;;;9.60;99.90;;;;;;2096542;28;20890;-69
2022/09/19 04:51:12;;;;;;;9.50;6.90;;;9.60;99.90;;;;;;2104683;28;20032;-70
2022/09/19 04:52:13;;;;;;;14.48;7.43;;;9.60;99.90;;;;;;2104457;28;20039;-69
2022/09/19 04:53:18;;;;;;;9.60;6.50;;;9.60;99.90;;;;;;2096747;28;20055;-69
2022/09/19 04:54:22;;;;;;;12.20;7.22;;;9.60;99.90;;;;;;2088556;28;20025;-69
2022/09/19 04:55:25;;;;;;;10.40;6.50;;;9.60;99.90;;;;;;2088383;28;20170;-70
2022/09/19 04:56:26;;;;;;;9.98;6.65;;;9.60;99.90;;;;;;2096509;28;20035;-70
2022/09/19 04:57:27;;;;;;;7.75;6.05;;;9.60;99.90;;;;;;2096167;28;20035;-71
2022/09/19 04:58:30;;;;;;;8.68;5.80;;;9.60;99.90;;;;;;2104405;28;20559;-72
2022/09/19 04:59:36;;;;;;;10.27;6.95;;;9.60;99.90;;;;;;2096416;28;20398;-68
2022/09/19 05:00:38;;;;;;;10.73;6.75;;;9.60;99.90;;;;;;2096599;28;20465;-69
2022/09/19 05:01:41;;;;;;;10.35;6.70;;;9.60;99.90;;;;;;2096113;28;20098;-68
2022/09/19 05:02:42;;;;;;;8.60;6.57;;;9.60;99.90;;;;;;2096155;28;20025;-69
2022/09/19 05:03:43;;;;;;;10.73;6.63;;;9.60;99.90;;;;;;2096244;28;20060;-70
2022/09/19 05:04:45;;;;;;;9.25;5.78;;;9.70;99.90;;;;;;2096385;28;20021;-69
2022/09/19 05:05:51;;;;;;;7.40;6.20;;;9.70;99.90;;;;;;2095931;28;20016;-69
2022/09/19 05:06:56;;;;;;;10.90;6.63;;;9.70;99.90;;;;;;2097230;28;20119;-71
2022/09/19 05:07:58;;;;;;;8.18;5.90;;;9.80;99.90;;;;;;2088110;28;20394;-69
2022/09/19 05:08:59;;;;;;;11.23;7.80;;;9.70;99.90;;;;;;2088124;28;20037;-71
2022/09/19 05:10:07;;;;;;;9.98;6.65;;;9.80;99.90;;;;;;2094964;28;20118;-69
2022/09/19 05:11:10;;;;;;;9.07;6.38;;;9.70;99.90;;;;;;2096405;28;20036;-70
2022/09/19 05:12:11;;;;;;;7.85;6.10;;;9.70;99.90;;;;;;2095885;28;20431;-69
2022/09/19 05:13:15;;;;;;;9.73;6.38;;;9.80;99.90;;;;;;2096747;28;20048;-70
2022/09/19 05:14:17;;;;;;;9.05;5.90;;;9.80;99.90;;;;;;2104512;28;20077;-69
2022/09/19 05:15:25;;;;;;;9.35;6.03;;;9.80;99.90;;;;;;2104297;28;20588;-69
2022/09/19 05:16:27;;;;;;;11.60;6.30;;;9.80;99.90;;;;;;2096254;28;20044;-69
2022/09/19 05:17:37;;;;;;;6.18;5.38;;;9.80;99.90;;;;;;2096997;28;20032;-69
2022/09/19 05:18:39;;;;;;;8.70;5.55;;;9.80;99.90;;;;;;2095904;28;20028;-70
2022/09/19 05:19:44;;;;;;;9.00;5.90;;;9.80;99.90;;;;;;2096448;28;20042;-69
2022/09/19 05:20:45;;;;;;;9.30;5.70;;;9.80;99.90;;;;;;2096230;28;20017;-69
2022/09/19 05:21:45;;;;;;;10.55;5.97;;;9.80;99.90;;;;;;2104063;28;20031;-69
2022/09/19 05:22:46;;;;;;;9.02;5.97;;;9.80;99.90;;;;;;2104314;28;20169;-68
2022/09/19 05:23:47;;;;;;;7.50;5.70;;;9.80;99.90;;;;;;2095924;28;20085;-69
2022/09/19 05:24:47;;;;;;;8.95;5.63;;;9.80;99.90;;;;;;2095376;28;20031;-69
2022/09/19 05:25:52;;;;;;;7.07;5.60;;;9.80;99.90;;;;;;2095788;28;20085;-70
2022/09/19 05:26:56;;;;;;;8.25;6.18;;;9.80;99.90;;;;;;2104122;28;20106;-69
2022/09/19 05:28:04;;;;;;;7.75;5.63;;;9.80;99.90;;;;;;2104443;28;20024;-69
2022/09/19 05:29:08;;;;;;;7.82;5.50;;;9.80;99.90;;;;;;2102432;28;20093;-69
2022/09/19 05:30:21;;;;;;;;;;;9.80;99.90;;;;;;2099685;28;20032;-69
2022/09/19 05:31:22;;;;;;;12.85;6.68;;;9.80;99.90;;;;;;2104283;28;19904;-70
2022/09/19 05:32:35;;;;;;;9.18;6.50;;;9.80;99.90;;;;;;2104309;28;20032;-70
2022/09/19 05:34:00;;;;;;;7.95;5.97;;;9.80;99.90;;;;;;2108980;28;20478;-70
2022/09/19 05:35:01;;;;;;;7.97;5.55;;;9.80;99.90;;;;;;2104703;28;20047;-71
2022/09/19 05:36:27;;;;;;;9.68;6.90;;;9.90;99.90;;;;;;2104427;28;20036;-70
2022/09/19 05:37:41;;;;;;;8.82;6.25;;;9.90;99.90;;;;;;2112663;28;20070;-71
2022/09/19 05:39:01;;;;;;;9.23;7.00;;;9.90;99.90;;;;;;2112482;28;20071;-72
2022/09/19 05:40:13;;;;;;;9.30;6.53;;;9.90;99.90;;;;;;2112995;28;20118;-75
2022/09/19 05:41:20;;;;;;;9.43;7.45;;;9.90;99.90;;;;;;2112821;28;20035;-73
2022/09/19 05:42:25;;;;;;;10.18;6.63;;;9.90;99.90;;;;;;2113317;28;20046;-74
2022/09/19 05:43:27;;;;;;;11.63;7.13;;;9.90;99.90;;;;;;2108260;28;20566;-73
2022/09/19 05:44:28;;;;;;;13.18;7.68;;;9.90;99.90;;;;;;2095946;28;20425;-73
2022/09/19 05:45:32;;;;;;;9.65;7.78;;;9.90;99.90;;;;;;2091098;28;20036;-74
2022/09/19 05:46:33;;;;;;;11.25;8.05;;;10.00;99.90;;;;;;2095890;28;20035;-72
2022/09/19 05:47:34;;;;;;;14.35;9.82;;;10.00;99.90;;;;;;2095984;28;20027;-73
2022/09/19 05:48:37;;;;;;;13.98;8.20;;;10.00;99.90;;;;;;2096822;28;20029;-74
2022/09/19 05:49:39;;;;;;;10.75;7.80;;;10.00;99.90;;;;;;2088498;28;20021;-71
2022/09/19 05:50:42;;;;;;;11.38;7.85;;;10.00;99.90;;;;;;2095914;28;20166;-72
2022/09/19 05:51:43;;;;;;;9.93;7.70;;;10.00;99.90;;;;;;2096023;28;20115;-72
2022/09/19 05:54:11;;;;;;;9.48;7.30;;;10.10;99.90;;;;;;2098646;28;20024;-70
2022/09/19 05:55:18;;;;;;;8.05;7.00;;;10.10;99.90;;;;;;2096469;28;20097;-70
2022/09/19 05:56:51;;;;;;;9.25;7.70;;;10.10;99.90;;;;;;2095197;28;20096;-70
2022/09/19 05:57:56;;;;;;;9.15;7.10;;;10.10;99.90;;;;;;2104011;28;20610;-70
2022/09/19 05:58:57;;;;;;;12.27;8.25;;;10.20;99.90;;;;;;2095915;28;20062;-72